Time;durP1;ratioP1;P1;durP2;ratioP2;P2;SDS_P1;SDS_P2;PMS_P1;PMS_P2;Temp;Humidity;BMP_temperature;BMP_pressure;BME280_temperature;BME280_humidity;BME280_pressure;Samples;Min_cycle;Max_cycle;Signal;HPM_P1;HPM_P2
2022/06/23 00:02:56;;;;;;;11.95;2.53;;;24.70;63.90;;;;;;6106730;29;20031;-73
2022/06/23 00:06:00;;;;;;;17.20;2.40;;;24.70;64.00;;;;;;6139814;28;20039;-73
2022/06/23 00:09:21;;;;;;;16.90;2.17;;;24.70;63.90;;;;;;6149252;28;20126;-73
2022/06/23 00:12:32;;;;;;;12.55;2.83;;;24.70;63.80;;;;;;6144767;28;20114;-73
2022/06/23 00:15:39;;;;;;;11.15;2.30;;;24.70;63.90;;;;;;6145325;28;20504;-73
2022/06/23 00:18:41;;;;;;;25.70;3.28;;;24.70;63.90;;;;;;6163177;28;20023;-73
2022/06/23 00:21:53;;;;;;;10.25;2.35;;;24.70;64.00;;;;;;6149655;28;20448;-73
2022/06/23 00:24:57;;;;;;;17.10;2.58;;;24.70;65.00;;;;;;6157763;28;20024;-73
2022/06/23 00:27:59;;;;;;;7.75;2.80;;;24.70;64.20;;;;;;6151843;28;20031;-73
2022/06/23 00:31:04;;;;;;;15.50;3.10;;;24.70;64.20;;;;;;6151171;28;20109;-73
2022/06/23 00:34:22;;;;;;;14.35;2.50;;;24.70;64.40;;;;;;6139335;28;20041;-73
2022/06/23 00:37:24;;;;;;;8.60;2.90;;;24.60;64.60;;;;;;6154097;28;20031;-73
2022/06/23 00:40:26;;;;;;;12.73;3.17;;;24.60;64.60;;;;;;6144417;28;20033;-73
2022/06/23 00:43:28;;;;;;;14.85;3.03;;;24.60;64.70;;;;;;6165561;28;20042;-73
2022/06/23 00:46:40;;;;;;;14.35;2.70;;;24.60;64.70;;;;;;6149789;28;20019;-73
2022/06/23 00:49:59;;;;;;;17.00;2.83;;;24.60;64.80;;;;;;6123510;28;20520;-73
2022/06/23 00:53:12;;;;;;;11.52;2.90;;;24.60;65.00;;;;;;6162218;28;20407;-74
2022/06/23 00:56:16;;;;;;;13.55;3.47;;;24.50;64.90;;;;;;6159924;28;20031;-74
2022/06/23 00:59:26;;;;;;;16.92;3.10;;;24.50;65.00;;;;;;6153364;28;20035;-73
2022/06/23 01:02:48;;;;;;;17.85;2.60;;;24.50;65.20;;;;;;6167513;28;20035;-73
2022/06/23 01:05:57;;;;;;;21.45;3.10;;;24.50;65.30;;;;;;6143875;28;20081;-72
2022/06/23 01:09:23;;;;;;;14.68;3.70;;;24.50;65.30;;;;;;6158917;28;20054;-74
2022/06/23 01:12:46;;;;;;;9.85;2.22;;;24.40;65.20;;;;;;6146942;28;20475;-74
2022/06/23 01:16:03;;;;;;;17.13;3.85;;;24.40;65.20;;;;;;6160583;28;20085;-74
2022/06/23 01:19:38;;;;;;;18.70;2.67;;;24.40;65.30;;;;;;6142978;28;20031;-74
2022/06/23 01:22:46;;;;;;;11.20;2.70;;;24.40;65.50;;;;;;6157552;28;20121;-73
2022/06/23 01:26:20;;;;;;;14.80;2.45;;;24.40;65.40;;;;;;6167286;28;20038;-75
2022/06/23 01:29:29;;;;;;;10.90;2.80;;;24.40;65.50;;;;;;6151414;28;20125;-74
2022/06/23 01:32:36;;;;;;;12.18;2.42;;;24.40;65.20;;;;;;6142698;28;20376;-72
2022/06/23 01:35:53;;;;;;;16.88;2.72;;;24.40;65.40;;;;;;6146592;28;20027;-72
2022/06/23 01:39:21;;;;;;;17.38;2.80;;;24.30;65.60;;;;;;6148001;28;20464;-74
2022/06/23 01:42:25;;;;;;;8.68;2.28;;;24.30;65.60;;;;;;6159215;28;20035;-74
2022/06/23 01:45:53;;;;;;;15.90;2.70;;;24.30;65.50;;;;;;6159574;28;20086;-74
2022/06/23 01:49:05;;;;;;;12.52;2.80;;;24.30;65.50;;;;;;6140061;28;20024;-74
2022/06/23 01:52:15;;;;;;;6.88;2.38;;;24.40;65.50;;;;;;6169105;28;20488;-74
2022/06/23 01:55:35;;;;;;;17.15;2.30;;;24.40;65.40;;;;;;6149097;28;20039;-74
2022/06/23 01:58:52;;;;;;;10.38;2.00;;;24.40;65.40;;;;;;6151126;28;20413;-74
2022/06/23 02:02:17;;;;;;;12.13;2.47;;;24.40;65.50;;;;;;6162909;28;20046;-74
2022/06/23 02:05:40;;;;;;;16.15;2.45;;;24.40;65.60;;;;;;6138208;28;20031;-74
2022/06/23 02:08:52;;;;;;;12.27;2.78;;;24.40;65.60;;;;;;6159717;28;20046;-74
2022/06/23 02:11:54;;;;;;;8.27;2.50;;;24.30;65.50;;;;;;6152057;28;20027;-74
2022/06/23 02:14:55;;;;;;;15.15;3.45;;;24.30;65.50;;;;;;6141529;28;20027;-74
2022/06/23 02:18:14;;;;;;;15.18;3.03;;;24.30;65.50;;;;;;6149222;28;20035;-74
2022/06/23 02:21:35;;;;;;;13.65;2.80;;;24.30;65.60;;;;;;6144389;28;20047;-74
2022/06/23 02:24:55;;;;;;;20.13;2.60;;;24.30;65.60;;;;;;6166590;28;20035;-74
2022/06/23 02:28:22;;;;;;;12.68;2.67;;;24.30;65.50;;;;;;6157724;28;20364;-73
2022/06/23 02:31:49;;;;;;;10.93;3.20;;;24.30;65.40;;;;;;6097641;29;20111;-74
2022/06/23 02:35:16;;;;;;;11.93;2.45;;;24.40;65.20;;;;;;6119955;29;20056;-74
2022/06/23 02:38:20;;;;;;;9.00;2.10;;;24.40;65.20;;;;;;6048606;29;20335;-73
2022/06/23 02:41:30;;;;;;;6.47;1.75;;;24.40;65.00;;;;;;6037648;29;20037;-74
2022/06/23 02:44:42;;;;;;;18.48;3.28;;;24.40;64.90;;;;;;6037515;29;20045;-74
2022/06/23 02:48:24;;;;;;;6.05;1.98;;;24.40;64.90;;;;;;6042534;29;20427;-73
2022/06/23 02:51:46;;;;;;;15.18;2.90;;;24.40;64.90;;;;;;5949215;29;20035;-74
2022/06/23 02:55:02;;;;;;;18.65;3.10;;;24.50;64.80;;;;;;5968993;29;20046;-73
2022/06/23 02:58:17;;;;;;;19.00;2.40;;;24.50;64.70;;;;;;5965666;29;20384;-74
2022/06/23 03:01:44;;;;;;;11.70;2.78;;;24.40;64.70;;;;;;5965625;29;20046;-74
2022/06/23 03:04:57;;;;;;;19.48;2.90;;;24.40;64.70;;;;;;5965447;29;20035;-73
2022/06/23 03:08:12;;;;;;;16.10;3.72;;;24.40;64.70;;;;;;5959498;29;20057;-73
2022/06/23 03:11:19;;;;;;;21.58;2.90;;;24.30;64.50;;;;;;5968156;29;20121;-73
2022/06/23 03:14:44;;;;;;;16.17;3.13;;;24.40;64.50;;;;;;5989970;29;20057;-73
2022/06/23 03:18:14;;;;;;;17.10;3.20;;;24.30;64.60;;;;;;6022638;29;20128;-73
2022/06/23 03:21:24;;;;;;;19.02;2.88;;;24.30;64.50;;;;;;6004763;29;20551;-73
2022/06/23 03:24:47;;;;;;;15.15;3.22;;;24.30;64.60;;;;;;6059415;28;20066;-73
2022/06/23 03:27:57;;;;;;;20.98;3.08;;;24.30;64.60;;;;;;6143337;28;20018;-73
2022/06/23 03:31:07;;;;;;;14.45;3.00;;;24.30;64.50;;;;;;6138828;28;20035;-73
2022/06/23 03:34:24;;;;;;;16.20;3.42;;;24.30;64.60;;;;;;6142254;28;20027;-73
2022/06/23 03:37:55;;;;;;;13.52;3.15;;;24.30;64.60;;;;;;6162201;28;20120;-75
2022/06/23 03:44:39;;;;;;;19.85;3.78;;;24.30;64.30;;;;;;6167559;28;20376;-73
2022/06/23 03:48:17;;;;;;;17.70;2.83;;;24.30;64.40;;;;;;6131184;28;20043;-74
2022/06/23 03:51:32;;;;;;;15.18;2.97;;;24.30;64.30;;;;;;6153339;28;20108;-74
2022/06/23 03:54:55;;;;;;;13.30;2.53;;;24.30;64.10;;;;;;6134870;28;20035;-74
2022/06/23 03:58:10;;;;;;;17.15;3.15;;;24.30;64.10;;;;;;6158276;28;20356;-74
2022/06/23 04:01:11;;;;;;;19.40;3.40;;;24.30;63.90;;;;;;6163237;28;20062;-74
2022/06/23 04:04:12;;;;;;;14.25;2.90;;;24.30;63.80;;;;;;6131544;28;20479;-75
2022/06/23 04:07:28;;;;;;;16.40;3.33;;;24.30;63.70;;;;;;6173597;28;20031;-73
2022/06/23 04:10:44;;;;;;;21.92;3.53;;;24.30;63.90;;;;;;6156923;28;20417;-73
2022/06/23 04:13:45;;;;;;;15.38;4.10;;;24.20;63.70;;;;;;6146067;28;20034;-74
2022/06/23 04:16:51;;;;;;;15.93;3.17;;;24.20;63.60;;;;;;6150130;28;20054;-74
2022/06/23 04:20:00;;;;;;;13.05;2.83;;;24.20;63.70;;;;;;6166110;28;20027;-74
2022/06/23 04:23:06;;;;;;;19.00;2.78;;;24.20;63.70;;;;;;6193063;28;20050;-73
2022/06/23 04:26:22;;;;;;;19.10;2.70;;;24.20;63.90;;;;;;6156352;28;20035;-74
2022/06/23 04:29:36;;;;;;;20.77;2.97;;;24.10;64.10;;;;;;6145418;28;20114;-74
2022/06/23 04:32:37;;;;;;;12.07;2.30;;;24.10;64.20;;;;;;6164304;28;20345;-74
2022/06/23 04:35:39;;;;;;;12.23;3.03;;;24.00;64.40;;;;;;6138883;28;20082;-74
2022/06/23 04:38:50;;;;;;;11.77;2.60;;;24.00;64.60;;;;;;6148955;28;20122;-74
2022/06/23 04:42:13;;;;;;;9.95;2.63;;;24.00;64.60;;;;;;6181915;28;20042;-74
2022/06/23 04:45:40;;;;;;;14.15;2.50;;;24.00;64.60;;;;;;6165726;28;20053;-74
2022/06/23 04:49:05;;;;;;;11.80;2.38;;;24.00;64.60;;;;;;6160762;28;20104;-74
2022/06/23 04:52:22;;;;;;;7.75;2.30;;;24.10;64.50;;;;;;6173992;28;20039;-74
2022/06/23 04:55:31;;;;;;;11.93;2.55;;;24.10;64.50;;;;;;6173702;28;20045;-74
2022/06/23 04:58:40;;;;;;;17.48;2.72;;;24.20;64.40;;;;;;6144658;28;20046;-74
2022/06/23 05:01:47;;;;;;;18.73;2.97;;;24.20;64.20;;;;;;6150563;28;20096;-74
2022/06/23 05:05:09;;;;;;;12.98;3.00;;;24.30;64.10;;;;;;6172106;28;20745;-74
2022/06/23 05:08:25;;;;;;;11.93;2.90;;;24.30;63.90;;;;;;6161213;28;20093;-73
2022/06/23 05:11:35;;;;;;;12.52;2.42;;;24.40;63.80;;;;;;6177770;28;20026;-73
2022/06/23 05:14:53;;;;;;;10.38;2.58;;;24.50;63.60;;;;;;6174437;28;20031;-73
2022/06/23 05:17:59;;;;;;;9.98;2.58;;;24.50;63.50;;;;;;6155713;28;20019;-73
2022/06/23 05:21:00;;;;;;;22.88;3.33;;;24.60;63.40;;;;;;6169276;28;20050;-73
2022/06/23 05:24:21;;;;;;;17.38;3.55;;;24.50;63.20;;;;;;6166982;28;20078;-74
2022/06/23 05:27:29;;;;;;;8.65;2.50;;;24.60;63.30;;;;;;6156149;28;20337;-72
2022/06/23 05:30:38;;;;;;;13.40;2.50;;;24.60;63.10;;;;;;6142044;28;20031;-74
2022/06/23 05:33:46;;;;;;;9.60;2.75;;;24.70;63.00;;;;;;6179157;28;20050;-73
2022/06/23 05:36:59;;;;;;;6.97;2.25;;;24.80;62.90;;;;;;6144050;28;20584;-74
2022/06/23 05:40:12;;;;;;;9.32;2.42;;;24.90;62.80;;;;;;6151980;28;20117;-73
2022/06/23 05:43:14;;;;;;;14.75;2.55;;;24.90;62.50;;;;;;6171464;28;20027;-73
2022/06/23 05:46:23;;;;;;;8.98;2.92;;;25.00;62.20;;;;;;6140439;28;20460;-73
2022/06/23 05:49:39;;;;;;;13.77;2.65;;;25.00;62.00;;;;;;6142591;28;20053;-74
2022/06/23 05:52:44;;;;;;;10.88;3.08;;;25.10;61.90;;;;;;6148114;28;20039;-73
2022/06/23 05:55:49;;;;;;;13.25;2.78;;;25.10;61.60;;;;;;6177373;28;20081;-73
2022/06/23 05:59:05;;;;;;;8.48;2.53;;;25.20;61.70;;;;;;6133655;28;20329;-73
2022/06/23 06:02:16;;;;;;;9.77;2.85;;;25.30;61.60;;;;;;6158752;28;20024;-72
2022/06/23 06:05:29;;;;;;;13.57;2.58;;;25.40;61.00;;;;;;6151708;28;20400;-72
2022/06/23 06:12:36;;;;;;;12.75;2.72;;;25.40;60.40;;;;;;6083473;29;20037;-73
2022/06/23 06:15:42;;;;;;;25.35;2.90;;;25.50;60.00;;;;;;6091219;29;20100;-73
2022/06/23 06:18:44;;;;;;;11.85;2.70;;;25.60;59.70;;;;;;6085848;29;20035;-78
2022/06/23 06:21:51;;;;;;;10.48;2.85;;;25.60;59.40;;;;;;6096245;29;20048;-72
2022/06/23 06:24:55;;;;;;;12.02;2.72;;;25.70;59.30;;;;;;6063190;29;20041;-73
2022/06/23 06:28:19;;;;;;;13.63;2.78;;;25.70;59.40;;;;;;6041470;29;20148;-72
2022/06/23 06:31:30;;;;;;;12.10;3.65;;;25.70;59.10;;;;;;6041938;29;20025;-74
2022/06/23 06:34:49;;;;;;;9.15;2.90;;;25.80;58.90;;;;;;6061033;29;20475;-72
2022/06/23 06:38:00;;;;;;;19.85;3.03;;;25.90;58.80;;;;;;6062068;29;20079;-72
2022/06/23 06:41:03;;;;;;;9.35;2.28;;;26.00;58.40;;;;;;6058111;29;20075;-73
2022/06/23 06:44:04;;;;;;;7.03;2.47;;;26.10;58.30;;;;;;6114088;29;20370;-73
2022/06/23 06:47:06;;;;;;;18.13;3.03;;;26.20;57.90;;;;;;6115039;29;20123;-74
2022/06/23 06:50:36;;;;;;;12.98;2.78;;;26.20;57.60;;;;;;6142073;28;20086;-74
2022/06/23 06:53:45;;;;;;;8.00;2.38;;;26.20;57.40;;;;;;6132025;29;20042;-74
2022/06/23 06:56:54;;;;;;;8.85;2.38;;;26.30;57.30;;;;;;6136825;29;20031;-75
2022/06/23 07:00:19;;;;;;;10.23;2.70;;;26.30;56.70;;;;;;6117410;29;20123;-74
2022/06/23 07:03:26;;;;;;;8.70;2.70;;;26.40;56.70;;;;;;6116424;29;20044;-75
2022/06/23 07:06:45;;;;;;;8.43;2.40;;;26.50;56.50;;;;;;6126584;29;20047;-74
2022/06/23 07:09:57;;;;;;;14.55;2.25;;;26.60;56.50;;;;;;6114688;29;20034;-74
2022/06/23 07:13:17;;;;;;;12.32;2.60;;;26.80;56.30;;;;;;6114271;29;20883;-74
2022/06/23 07:16:35;;;;;;;13.50;2.60;;;27.10;55.80;;;;;;6147986;28;20048;-76
2022/06/23 07:19:50;;;;;;;8.53;3.17;;;27.20;55.10;;;;;;6114290;29;20063;-74
2022/06/23 07:23:08;;;;;;;8.15;2.17;;;27.30;54.70;;;;;;6147364;28;20078;-75
2022/06/23 07:26:49;;;;;;;16.90;2.88;;;27.40;54.40;;;;;;6176863;28;20062;-74
2022/06/23 07:30:13;;;;;;;15.77;2.45;;;27.50;54.20;;;;;;6144244;28;20086;-75
2022/06/23 07:33:25;;;;;;;14.05;2.38;;;27.50;54.20;;;;;;6160466;28;20474;-75
2022/06/23 07:36:29;;;;;;;16.02;2.42;;;27.60;54.10;;;;;;6140844;28;20456;-75
2022/06/23 07:39:36;;;;;;;9.63;2.33;;;27.70;53.90;;;;;;6177493;28;20117;-75
2022/06/23 07:42:57;;;;;;;11.85;2.10;;;27.70;53.50;;;;;;6137231;28;20035;-75
2022/06/23 07:46:01;;;;;;;10.85;2.72;;;27.80;53.60;;;;;;6153852;28;20028;-75
2022/06/23 07:49:03;;;;;;;13.75;2.55;;;27.90;53.40;;;;;;6178167;28;20089;-74
2022/06/23 07:52:05;;;;;;;9.30;2.13;;;27.80;53.20;;;;;;6136831;28;20039;-75
2022/06/23 07:55:09;;;;;;;15.05;2.72;;;27.70;53.20;;;;;;6153776;28;20038;-74
2022/06/23 07:58:14;;;;;;;17.88;3.08;;;27.80;53.20;;;;;;6154250;28;20035;-74
2022/06/23 08:01:25;;;;;;;14.10;2.78;;;27.90;53.20;;;;;;6147604;28;20035;-77
2022/06/23 08:04:35;;;;;;;13.20;2.67;;;27.90;52.90;;;;;;6149135;28;20122;-73
2022/06/23 08:07:38;;;;;;;20.48;3.83;;;27.90;52.70;;;;;;6152131;28;20031;-75
2022/06/23 08:10:40;;;;;;;12.82;2.53;;;28.00;52.70;;;;;;6153476;28;20381;-75
2022/06/23 08:13:46;;;;;;;11.27;3.15;;;28.00;52.30;;;;;;6156956;28;20472;-76
2022/06/23 08:16:50;;;;;;;18.83;3.92;;;28.10;52.10;;;;;;6177083;28;20465;-75
2022/06/23 08:19:57;;;;;;;14.95;2.83;;;28.10;52.00;;;;;;6180473;28;20037;-75
2022/06/23 08:23:00;;;;;;;10.48;3.65;;;28.20;52.00;;;;;;6196343;28;20046;-75
2022/06/23 08:26:05;;;;;;;20.00;3.15;;;28.20;51.90;;;;;;6176896;28;20379;-74
2022/06/23 08:29:14;;;;;;;17.58;2.67;;;28.30;51.90;;;;;;6171112;28;20026;-77
2022/06/23 08:32:16;;;;;;;12.02;2.97;;;28.40;51.90;;;;;;6173883;28;20030;-76
2022/06/23 08:35:42;;;;;;;6.50;2.20;;;28.60;51.70;;;;;;6193676;28;20460;-76
2022/06/23 08:38:46;;;;;;;14.45;2.45;;;28.80;51.50;;;;;;6182983;28;20026;-76
2022/06/23 08:41:57;;;;;;;11.60;2.95;;;29.00;50.50;;;;;;6185581;28;20040;-76
2022/06/23 08:45:22;;;;;;;17.33;3.22;;;28.90;50.50;;;;;;6191464;28;20451;-77
2022/06/23 08:48:28;;;;;;;13.90;2.78;;;29.00;50.60;;;;;;6203662;28;20395;-76
2022/06/23 08:52:01;;;;;;;12.60;2.03;;;29.00;50.50;;;;;;6189139;28;20320;-76
2022/06/23 08:55:19;;;;;;;13.63;2.30;;;29.10;50.00;;;;;;6185687;28;20034;-77
2022/06/23 08:58:40;;;;;;;17.83;4.93;;;29.10;50.20;;;;;;6205613;28;20105;-76
2022/06/23 09:02:03;;;;;;;14.02;3.28;;;29.10;50.30;;;;;;6188288;28;20074;-75
2022/06/23 09:05:18;;;;;;;13.85;2.75;;;29.30;50.90;;;;;;6197694;28;20040;-75
2022/06/23 09:08:37;;;;;;;18.17;2.78;;;29.40;49.60;;;;;;6184987;28;20438;-76
2022/06/23 09:11:51;;;;;;;16.85;2.55;;;29.50;49.20;;;;;;6171258;28;20329;-76
2022/06/23 09:15:29;;;;;;;15.95;3.40;;;29.40;49.30;;;;;;6191104;28;20022;-76
2022/06/23 09:18:44;;;;;;;14.27;2.58;;;29.30;49.20;;;;;;6184348;28;20023;-76
2022/06/23 09:22:22;;;;;;;8.90;2.47;;;29.30;49.20;;;;;;6172208;28;20057;-75
2022/06/23 09:25:40;;;;;;;8.90;2.78;;;29.30;49.40;;;;;;6176876;28;20327;-75
2022/06/23 09:28:53;;;;;;;20.63;4.75;;;29.40;49.50;;;;;;6168780;28;20116;-76
2022/06/23 09:32:11;;;;;;;19.50;2.50;;;29.50;49.40;;;;;;6188411;28;20034;-75
2022/06/23 09:35:17;;;;;;;8.83;2.33;;;29.60;49.10;;;;;;6195198;28;20061;-76
2022/06/23 09:38:48;;;;;;;15.00;2.38;;;29.70;49.20;;;;;;6204397;28;20517;-76
2022/06/23 09:42:21;;;;;;;11.18;2.40;;;29.80;49.20;;;;;;6208812;28;20424;-76
2022/06/23 09:45:28;;;;;;;6.55;1.88;;;29.90;49.10;;;;;;6089695;29;20108;-76
2022/06/23 09:49:05;;;;;;;14.13;2.72;;;30.00;48.90;;;;;;6077699;29;20024;-76
2022/06/23 09:52:42;;;;;;;10.32;2.85;;;30.10;48.80;;;;;;6078944;29;20076;-75
2022/06/23 09:55:51;;;;;;;18.45;3.05;;;30.10;48.70;;;;;;6088161;29;20438;-74
2022/06/23 09:59:17;;;;;;;14.63;2.72;;;30.20;48.60;;;;;;6070453;29;20084;-74
2022/06/23 10:02:29;;;;;;;15.30;3.53;;;30.20;48.60;;;;;;6092295;29;20044;-73
2022/06/23 10:05:48;;;;;;;11.70;2.53;;;30.10;48.50;;;;;;6095209;29;20029;-74
2022/06/23 10:08:49;;;;;;;16.05;2.55;;;30.10;48.60;;;;;;6059712;29;20047;-74
2022/06/23 10:12:04;;;;;;;13.07;3.08;;;30.30;48.50;;;;;;6077206;29;20363;-76
2022/06/23 10:15:31;;;;;;;9.45;2.00;;;30.40;47.90;;;;;;6073218;29;20719;-75
2022/06/23 10:19:01;;;;;;;20.90;3.47;;;30.60;47.20;;;;;;6076864;29;20040;-75
2022/06/23 10:22:36;;;;;;;24.88;3.78;;;30.70;46.60;;;;;;6134373;28;20410;-75
2022/06/23 10:25:53;;;;;;;21.23;4.63;;;30.90;46.10;;;;;;6184434;28;20053;-75
2022/06/23 10:28:57;;;;;;;22.55;2.67;;;31.00;45.80;;;;;;6194586;28;20048;-76
2022/06/23 10:32:10;;;;;;;26.83;4.07;;;31.10;45.10;;;;;;6180468;28;20078;-74
2022/06/23 10:35:26;;;;;;;23.23;3.33;;;31.10;44.70;;;;;;6164410;28;20030;-77
2022/06/23 10:38:46;;;;;;;16.88;2.65;;;31.20;44.50;;;;;;6161977;28;20113;-76
2022/06/23 10:42:24;;;;;;;15.48;2.47;;;31.20;44.20;;;;;;6166446;28;20117;-74
2022/06/23 10:45:28;;;;;;;21.63;3.53;;;31.30;44.10;;;;;;6185912;28;20440;-75
2022/06/23 10:48:43;;;;;;;14.48;2.83;;;31.50;43.80;;;;;;6188360;28;20127;-74
2022/06/23 10:51:59;;;;;;;14.48;2.60;;;31.70;43.30;;;;;;6193996;28;20026;-75
2022/06/23 10:55:18;;;;;;;18.17;3.67;;;31.90;42.90;;;;;;6176102;28;20026;-74
2022/06/23 10:58:28;;;;;;;25.55;3.53;;;32.10;42.60;;;;;;6167785;28;20057;-75
2022/06/23 11:01:57;;;;;;;22.83;3.15;;;32.20;42.40;;;;;;6189054;28;20093;-75
2022/06/23 11:05:35;;;;;;;28.90;3.50;;;32.40;41.90;;;;;;6207715;28;20436;-74
2022/06/23 11:08:55;;;;;;;19.23;3.43;;;32.70;41.50;;;;;;6169574;28;20133;-75
2022/06/23 11:12:15;;;;;;;18.38;2.40;;;33.80;39.40;;;;;;6182071;28;20114;-74
2022/06/23 11:15:25;;;;;;;20.70;2.85;;;34.80;37.10;;;;;;6185320;28;20088;-75
2022/06/23 11:18:50;;;;;;;12.57;2.17;;;35.90;34.60;;;;;;6206763;28;20056;-76
2022/06/23 11:22:01;;;;;;;14.90;3.10;;;36.40;32.50;;;;;;6187632;28;20050;-74
2022/06/23 11:25:31;;;;;;;13.25;2.20;;;36.80;31.40;;;;;;6190557;28;20146;-75
2022/06/23 11:29:09;;;;;;;16.10;3.08;;;37.20;30.20;;;;;;6189695;28;20543;-74
2022/06/23 11:32:27;;;;;;;22.33;2.80;;;37.90;29.40;;;;;;6172728;28;20035;-75
2022/06/23 11:36:03;;;;;;;17.75;2.58;;;38.40;28.80;;;;;;6193849;28;20045;-75
2022/06/23 11:39:19;;;;;;;16.25;3.15;;;38.90;28.30;;;;;;6174105;28;20035;-75
2022/06/23 11:42:40;;;;;;;18.73;2.58;;;39.20;28.00;;;;;;6160203;28;20109;-75
2022/06/23 11:46:07;;;;;;;19.02;2.75;;;39.50;27.30;;;;;;6177598;28;20094;-76
2022/06/23 11:49:35;;;;;;;14.10;2.45;;;39.90;26.70;;;;;;6200386;28;20030;-73
2022/06/23 11:52:42;;;;;;;19.48;3.58;;;40.20;25.60;;;;;;6182317;28;20089;-75
2022/06/23 11:55:55;;;;;;;15.40;2.55;;;40.40;25.80;;;;;;6179298;28;20031;-75
2022/06/23 11:59:02;;;;;;;18.63;2.95;;;40.50;25.90;;;;;;6159582;28;20122;-75
2022/06/23 12:02:03;;;;;;;18.08;2.90;;;40.70;25.70;;;;;;6158937;28;20469;-74
2022/06/23 12:05:04;;;;;;;25.30;3.10;;;40.70;25.60;;;;;;6176893;28;20403;-75
2022/06/23 12:08:14;;;;;;;19.33;3.63;;;40.80;25.40;;;;;;6159890;28;20089;-75
2022/06/23 12:11:16;;;;;;;17.23;2.58;;;40.80;25.30;;;;;;6159812;28;20428;-75
2022/06/23 12:14:17;;;;;;;18.48;2.88;;;40.50;25.40;;;;;;6167736;28;20100;-73
2022/06/23 12:17:30;;;;;;;17.25;2.95;;;40.00;26.10;;;;;;6159725;28;20330;-75
2022/06/23 12:21:00;;;;;;;22.45;2.40;;;39.80;26.50;;;;;;6177305;28;20030;-74
2022/06/23 12:24:19;;;;;;;17.77;2.25;;;40.10;26.10;;;;;;6182605;28;20034;-74
2022/06/23 12:27:53;;;;;;;21.92;3.42;;;39.60;26.00;;;;;;6199447;28;20022;-74
2022/06/23 12:31:00;;;;;;;26.33;3.00;;;38.90;26.60;;;;;;6099697;29;20051;-74
2022/06/23 12:34:03;;;;;;;14.73;3.53;;;38.50;27.20;;;;;;6109629;29;20052;-73
2022/06/23 12:37:04;;;;;;;21.45;4.05;;;38.00;27.80;;;;;;6091267;29;20028;-74
2022/06/23 12:40:20;;;;;;;14.93;3.28;;;37.70;28.30;;;;;;6107841;29;20075;-74
2022/06/23 12:43:35;;;;;;;18.55;2.65;;;37.50;28.30;;;;;;6126072;29;20066;-73
2022/06/23 12:46:40;;;;;;;18.20;2.45;;;37.70;27.70;;;;;;6125944;29;20130;-74
2022/06/23 12:50:05;;;;;;;10.00;2.05;;;38.20;26.30;;;;;;6124709;29;20036;-74
2022/06/23 12:53:27;;;;;;;21.50;2.85;;;38.00;24.60;;;;;;6115374;29;20489;-74
2022/06/23 12:57:03;;;;;;;9.75;2.22;;;37.50;24.70;;;;;;6100773;29;20151;-75
2022/06/23 13:00:18;;;;;;;7.95;1.48;;;37.00;25.70;;;;;;6089740;29;20130;-77
2022/06/23 13:03:28;;;;;;;18.30;1.60;;;37.10;24.70;;;;;;6116566;29;20024;-79
2022/06/23 13:06:40;;;;;;;15.38;1.90;;;37.40;23.20;;;;;;6140313;28;20043;-80
2022/06/23 13:10:26;;;;;;;13.95;2.00;;;37.70;23.40;;;;;;6194085;28;20026;-79
2022/06/23 13:13:43;;;;;;;12.70;2.25;;;38.10;23.00;;;;;;6104327;29;20046;-75
2022/06/23 13:17:21;;;;;;;11.32;1.70;;;38.30;22.50;;;;;;6103773;29;20118;-74
2022/06/23 13:20:35;;;;;;;14.80;2.65;;;37.60;23.10;;;;;;6125279;29;20059;-74
2022/06/23 13:23:40;;;;;;;14.98;2.13;;;36.90;24.00;;;;;;6121273;29;20035;-76
2022/06/23 13:26:57;;;;;;;11.82;1.88;;;37.10;24.10;;;;;;6093866;29;20433;-75
2022/06/23 13:30:08;;;;;;;6.72;1.75;;;38.30;23.50;;;;;;6087983;29;20055;-76
2022/06/23 13:33:21;;;;;;;13.38;2.67;;;38.60;22.90;;;;;;6126589;29;20044;-72
2022/06/23 13:36:43;;;;;;;10.65;2.25;;;38.60;23.10;;;;;;6110313;29;20047;-83
2022/06/23 13:40:14;;;;;;;9.57;1.83;;;39.30;23.20;;;;;;6117203;29;20074;-82
2022/06/23 13:43:35;;;;;;;18.58;2.53;;;40.10;23.00;;;;;;6127554;29;20549;-76
2022/06/23 13:46:54;;;;;;;13.93;1.90;;;41.40;22.30;;;;;;6106305;29;20030;-75
2022/06/23 13:50:07;;;;;;;16.38;2.03;;;41.60;21.90;;;;;;6154117;28;20094;-75
2022/06/23 13:53:18;;;;;;;18.95;2.03;;;41.30;22.10;;;;;;6165086;28;20464;-75
2022/06/23 13:56:28;;;;;;;10.93;1.88;;;40.40;22.40;;;;;;6179524;28;20379;-72
2022/06/23 13:59:42;;;;;;;11.57;2.15;;;39.30;23.30;;;;;;6167703;28;20059;-79
2022/06/23 14:03:02;;;;;;;6.88;1.85;;;38.30;24.60;;;;;;6187680;28;20122;-83
2022/06/23 14:06:35;;;;;;;12.77;1.88;;;37.30;25.00;;;;;;6181971;28;20033;-73
2022/06/23 14:09:44;;;;;;;10.52;2.28;;;36.80;25.70;;;;;;6161632;28;20085;-75
2022/06/23 14:12:57;;;;;;;9.88;1.83;;;36.50;26.00;;;;;;6181219;28;20053;-74
2022/06/23 14:16:39;;;;;;;12.43;2.15;;;36.30;26.40;;;;;;6169215;28;20369;-78
2022/06/23 14:20:01;;;;;;;9.38;1.70;;;36.40;26.50;;;;;;6086640;29;20040;-80
2022/06/23 14:23:16;;;;;;;10.73;1.90;;;36.40;26.50;;;;;;6122192;29;20051;-75
2022/06/23 14:26:22;;;;;;;13.35;1.67;;;35.90;27.00;;;;;;6106393;29;20473;-74
2022/06/23 14:29:45;;;;;;;3.08;1.13;;;35.30;27.50;;;;;;6113838;29;20054;-79
2022/06/23 14:33:09;;;;;;;7.13;1.15;;;34.60;28.30;;;;;;6119652;29;20523;-79
2022/06/23 14:36:14;;;;;;;17.15;1.88;;;33.90;29.40;;;;;;6130633;29;20075;-84
2022/06/23 14:39:30;;;;;;;11.52;1.63;;;33.20;32.60;;;;;;6096520;29;20038;-82
2022/06/23 14:42:52;;;;;;;9.18;1.40;;;32.00;36.60;;;;;;6113079;29;20043;-75
2022/06/23 14:46:14;;;;;;;5.38;1.73;;;30.90;39.40;;;;;;6112479;29;20028;-75
2022/06/23 14:49:15;;;;;;;10.45;1.75;;;29.80;43.00;;;;;;6098154;29;20441;-72
2022/06/23 14:52:25;;;;;;;8.32;1.75;;;28.90;45.40;;;;;;6124581;29;20044;-73
2022/06/23 14:55:51;;;;;;;8.77;1.50;;;28.10;47.30;;;;;;6123016;28;20490;-75
2022/06/23 14:58:54;;;;;;;10.77;1.42;;;27.60;48.80;;;;;;6174773;28;20066;-74
2022/06/23 15:02:14;;;;;;;4.32;1.33;;;27.80;48.70;;;;;;6173667;28;20034;-75
2022/06/23 15:05:27;;;;;;;3.47;1.30;;;28.60;47.80;;;;;;6165449;28;20042;-75
2022/06/23 15:08:53;;;;;;;4.68;1.25;;;29.90;45.90;;;;;;6173006;28;20041;-76
2022/06/23 15:12:13;;;;;;;6.97;1.27;;;30.70;44.30;;;;;;6175388;28;20053;-75
2022/06/23 15:15:14;;;;;;;9.90;1.48;;;30.60;44.00;;;;;;6177811;28;20333;-76
2022/06/23 15:18:29;;;;;;;6.47;1.67;;;30.40;44.30;;;;;;6185596;28;20022;-76
2022/06/23 15:25:43;;;;;;;9.88;1.42;;;30.40;44.40;;;;;;6179902;28;20112;-76
2022/06/23 15:29:09;;;;;;;6.70;1.52;;;30.40;44.30;;;;;;6195884;28;20030;-77
2022/06/23 15:32:29;;;;;;;20.88;1.70;;;30.30;44.20;;;;;;6164786;28;20127;-76
2022/06/23 15:35:40;;;;;;;13.15;2.00;;;30.10;44.40;;;;;;6168427;28;20368;-73
2022/06/23 15:38:45;;;;;;;10.27;1.58;;;30.10;44.30;;;;;;6179751;28;20045;-72
2022/06/23 15:42:04;;;;;;;7.07;1.40;;;30.10;44.00;;;;;;6177944;28;20130;-74
2022/06/23 15:45:33;;;;;;;9.43;1.70;;;30.20;43.80;;;;;;6185488;28;20018;-74
2022/06/23 15:48:38;;;;;;;14.05;2.20;;;30.20;43.30;;;;;;6170082;28;20022;-73
2022/06/23 15:51:46;;;;;;;11.10;1.67;;;30.20;43.60;;;;;;6164938;28;20363;-76
2022/06/23 15:54:50;;;;;;;4.30;1.40;;;30.10;44.00;;;;;;6175096;28;20042;-74
2022/06/23 15:58:11;;;;;;;6.88;1.75;;;30.00;44.70;;;;;;6180789;28;20037;-75
2022/06/23 16:02:05;;;;;;;10.88;1.92;;;29.60;45.60;;;;;;6150543;28;20030;-73
2022/06/23 16:05:12;;;;;;;11.70;2.05;;;29.40;46.90;;;;;;6078789;29;20053;-74
2022/06/23 16:08:14;;;;;;;7.65;2.30;;;29.10;48.00;;;;;;6091362;29;20131;-74
2022/06/23 16:11:19;;;;;;;10.02;1.92;;;29.10;48.40;;;;;;6061826;29;20081;-74
2022/06/23 16:14:29;;;;;;;12.23;1.90;;;29.60;46.70;;;;;;6075921;29;20040;-75
2022/06/23 16:17:41;;;;;;;7.38;1.38;;;29.60;46.00;;;;;;6076110;29;20044;-74
2022/06/23 16:20:52;;;;;;;7.55;1.38;;;29.50;45.50;;;;;;6086069;29;20207;-75
2022/06/23 16:23:59;;;;;;;3.90;1.10;;;29.50;45.10;;;;;;6081052;29;20036;-76
2022/06/23 16:27:29;;;;;;;9.85;1.63;;;29.40;44.90;;;;;;6088691;29;20036;-75
2022/06/23 16:30:44;;;;;;;6.57;1.50;;;29.40;45.20;;;;;;6085772;29;20032;-75
2022/06/23 16:34:11;;;;;;;6.13;1.15;;;29.30;45.20;;;;;;6072505;29;20459;-75
2022/06/23 16:37:48;;;;;;;7.00;1.75;;;29.30;45.40;;;;;;6062676;29;20032;-76
2022/06/23 16:41:17;;;;;;;5.10;1.75;;;29.60;45.70;;;;;;6125469;28;20700;-76
2022/06/23 16:44:21;;;;;;;10.10;1.65;;;31.00;44.20;;;;;;6159994;28;20122;-76
2022/06/23 16:47:37;;;;;;;14.35;2.60;;;32.20;42.70;;;;;;6167029;28;20053;-75
2022/06/23 16:50:48;;;;;;;10.70;2.10;;;33.50;41.30;;;;;;6164229;28;20180;-76
2022/06/23 16:53:57;;;;;;;10.05;1.98;;;35.00;39.20;;;;;;6175560;28;20054;-77
2022/06/23 16:57:27;;;;;;;10.48;1.75;;;36.00;37.40;;;;;;6182010;28;20061;-77